Time;durP1;ratioP1;P1;durP2;ratioP2;P2;SDS_P1;SDS_P2;PMS_P1;PMS_P2;Temp;Humidity;BMP_temperature;BMP_pressure;BME280_temperature;BME280_humidity;BME280_pressure;Samples;Min_cycle;Max_cycle;Signal;HPM_P1;HPM_P2
2022/01/01 00:01:21;;;;;;;267.17;206.82;;;16.40;89.00;;;;;;4111507;28;20054;-58
2022/01/01 00:03:44;;;;;;;39.92;17.40;;;16.40;89.10;;;;;;4125716;28;20097;-58
2022/01/01 00:06:07;;;;;;;71.43;38.75;;;16.40;89.00;;;;;;4127201;28;20050;-57
2022/01/01 00:08:32;;;;;;;124.15;75.30;;;16.40;89.10;;;;;;4124929;28;20055;-57
2022/01/01 00:10:55;;;;;;;32.60;14.27;;;16.40;89.20;;;;;;4126714;28;20058;-59
2022/01/01 00:13:38;;;;;;;30.35;14.10;;;16.40;89.40;;;;;;4125648;28;20046;-58
2022/01/01 00:16:01;;;;;;;34.33;14.68;;;16.40;89.50;;;;;;4124798;28;20097;-57
2022/01/01 00:18:23;;;;;;;35.00;13.60;;;16.40;89.40;;;;;;4111018;28;20055;-58
2022/01/01 00:20:47;;;;;;;35.40;16.27;;;16.30;89.40;;;;;;4110628;28;20117;-57
2022/01/01 00:23:09;;;;;;;43.20;19.50;;;16.30;89.40;;;;;;4120889;28;20042;-58
2022/01/01 00:25:34;;;;;;;35.67;14.75;;;16.30;89.40;;;;;;4126928;28;20042;-58
2022/01/01 00:27:59;;;;;;;44.30;22.05;;;16.30;89.50;;;;;;4126471;28;20054;-58
2022/01/01 00:30:23;;;;;;;41.13;18.30;;;16.30;89.60;;;;;;4120631;28;20058;-58
2022/01/01 00:32:46;;;;;;;35.47;14.90;;;16.30;89.50;;;;;;4110339;28;20498;-58
2022/01/01 00:35:09;;;;;;;29.15;14.02;;;16.30;89.60;;;;;;4110511;28;20109;-57
2022/01/01 00:37:33;;;;;;;35.45;13.45;;;16.30;89.40;;;;;;4125145;28;20054;-57
2022/01/01 00:39:56;;;;;;;35.38;17.08;;;16.30;89.60;;;;;;4126356;28;20050;-57
2022/01/01 00:42:20;;;;;;;45.35;21.58;;;16.30;89.60;;;;;;4126530;28;20054;-58
2022/01/01 00:44:43;;;;;;;42.78;20.30;;;16.30;89.60;;;;;;4116826;28;20102;-58
2022/01/01 00:47:06;;;;;;;43.40;19.92;;;16.30;89.70;;;;;;4110000;28;20051;-57
2022/01/01 00:49:30;;;;;;;34.03;18.35;;;16.30;89.70;;;;;;4112273;28;20844;-58
2022/01/01 00:51:53;;;;;;;36.35;17.58;;;16.20;89.60;;;;;;4126322;28;20050;-59
2022/01/01 00:54:16;;;;;;;38.78;19.67;;;16.20;89.80;;;;;;4126651;28;20054;-57
2022/01/01 00:56:39;;;;;;;39.85;18.65;;;16.20;89.80;;;;;;4126540;28;20195;-57
2022/01/01 00:59:03;;;;;;;36.53;18.10;;;16.20;89.80;;;;;;4113155;28;20047;-57
2022/01/01 01:01:25;;;;;;;38.72;16.92;;;16.20;89.80;;;;;;4110202;28;20473;-56
2022/01/01 01:03:49;;;;;;;33.78;16.00;;;16.20;89.70;;;;;;4117752;28;20117;-57
2022/01/01 01:06:13;;;;;;;38.00;16.27;;;16.20;89.70;;;;;;4126445;28;20057;-56
2022/01/01 01:08:37;;;;;;;34.15;16.08;;;16.20;89.70;;;;;;4125881;28;20461;-57
2022/01/01 01:11:01;;;;;;;31.95;16.80;;;16.20;89.70;;;;;;4126197;28;20519;-58
2022/01/01 01:13:26;;;;;;;38.53;18.05;;;16.20;89.70;;;;;;4094224;28;20050;-57
2022/01/01 01:15:51;;;;;;;31.63;16.02;;;16.20;90.20;;;;;;4094142;28;20039;-57
2022/01/01 01:18:14;;;;;;;33.20;14.77;;;16.20;89.60;;;;;;4113447;28;20051;-57
2022/01/01 01:20:37;;;;;;;34.97;16.55;;;16.20;89.50;;;;;;4094206;28;20047;-58
2022/01/01 01:23:01;;;;;;;31.33;14.95;;;16.20;89.60;;;;;;4093893;28;20058;-58
2022/01/01 01:25:28;;;;;;;31.80;13.98;;;16.20;89.60;;;;;;4093476;28;20043;-57
2022/01/01 01:27:52;;;;;;;35.33;14.57;;;16.20;89.60;;;;;;4094031;28;20066;-56
2022/01/01 01:30:16;;;;;;;29.75;14.60;;;16.20;90.20;;;;;;4094969;28;20055;-57
2022/01/01 01:32:41;;;;;;;35.42;15.32;;;16.10;89.50;;;;;;4112896;28;20105;-57
2022/01/01 01:35:05;;;;;;;33.33;14.60;;;16.10;89.70;;;;;;4109893;28;20101;-57
2022/01/01 01:37:28;;;;;;;30.45;13.15;;;16.10;89.60;;;;;;4110181;28;20059;-56
2022/01/01 01:39:51;;;;;;;29.40;12.98;;;16.10;89.50;;;;;;4110323;28;20118;-56
2022/01/01 01:42:14;;;;;;;33.35;13.40;;;16.10;89.40;;;;;;4123426;28;20050;-56
2022/01/01 01:44:42;;;;;;;40.10;15.27;;;16.10;89.30;;;;;;4124333;28;20065;-57
2022/01/01 01:47:14;;;;;;;35.70;12.45;;;16.10;89.30;;;;;;4125663;28;20113;-57
2022/01/01 01:49:38;;;;;;;34.22;14.38;;;16.10;89.10;;;;;;4124541;28;20494;-57
2022/01/01 01:52:02;;;;;;;29.98;12.57;;;16.10;89.00;;;;;;4126097;28;20054;-55
2022/01/01 01:54:25;;;;;;;37.42;12.65;;;16.10;89.10;;;;;;4094302;28;20101;-56
2022/01/01 01:56:49;;;;;;;39.50;12.57;;;16.10;89.20;;;;;;4106382;28;21552;-55
2022/01/01 01:59:13;;;;;;;32.63;11.60;;;16.10;89.00;;;;;;4121018;28;20054;-56
2022/01/01 02:01:36;;;;;;;32.63;12.10;;;16.10;89.30;;;;;;4126043;28;20089;-57
2022/01/01 02:03:59;;;;;;;33.08;12.75;;;16.10;89.40;;;;;;4125947;28;20047;-56
2022/01/01 02:06:24;;;;;;;29.77;10.73;;;16.10;89.40;;;;;;4125817;28;20303;-58
2022/01/01 02:08:49;;;;;;;31.33;11.27;;;16.10;89.50;;;;;;4124475;28;20089;-55
2022/01/01 02:11:13;;;;;;;31.77;12.43;;;16.00;89.50;;;;;;4125259;28;20104;-55
2022/01/01 02:13:47;;;;;;;26.65;12.00;;;16.00;89.40;;;;;;4110079;28;20072;-57
2022/01/01 02:16:34;;;;;;;40.97;13.75;;;16.00;89.50;;;;;;4109164;28;20097;-54
2022/01/01 02:18:57;;;;;;;38.70;14.40;;;16.00;89.30;;;;;;4110805;28;20047;-55
2022/01/01 02:21:26;;;;;;;43.47;16.75;;;16.00;89.10;;;;;;4109420;28;20047;-56
2022/01/01 02:23:57;;;;;;;36.15;15.98;;;16.00;89.00;;;;;;4114323;28;20471;-56
2022/01/01 02:26:19;;;;;;;43.45;18.33;;;16.00;89.20;;;;;;4113315;28;20076;-56
2022/01/01 02:28:44;;;;;;;43.17;17.95;;;16.00;89.30;;;;;;4114144;28;20092;-54
2022/01/01 02:31:07;;;;;;;45.25;18.52;;;16.00;89.30;;;;;;4125178;28;20054;-55
2022/01/01 02:33:31;;;;;;;41.40;19.45;;;16.00;89.50;;;;;;4125368;28;20466;-58
2022/01/01 02:35:55;;;;;;;42.13;20.10;;;16.00;89.70;;;;;;4125255;28;20490;-56
2022/01/01 02:38:19;;;;;;;50.80;24.08;;;16.00;89.90;;;;;;4127547;28;20054;-56
2022/01/01 02:40:43;;;;;;;43.03;20.75;;;16.00;89.90;;;;;;4095092;28;20098;-57
2022/01/01 02:43:06;;;;;;;48.95;21.80;;;15.90;89.80;;;;;;4113362;28;20062;-58
2022/01/01 02:45:30;;;;;;;46.50;23.23;;;16.00;89.90;;;;;;4122397;28;20109;-57
2022/01/01 02:47:54;;;;;;;47.33;20.73;;;16.00;90.00;;;;;;4126203;28;20173;-56
2022/01/01 02:50:18;;;;;;;49.45;22.85;;;15.90;89.90;;;;;;4128403;28;20046;-57
2022/01/01 02:52:42;;;;;;;44.63;22.70;;;15.90;90.00;;;;;;4123886;28;20160;-55
2022/01/01 02:55:08;;;;;;;52.03;22.92;;;15.90;90.00;;;;;;4112416;28;20082;-57
2022/01/01 02:57:31;;;;;;;54.53;21.70;;;15.90;90.00;;;;;;4113376;28;20443;-57
2022/01/01 02:59:54;;;;;;;56.38;22.27;;;15.90;90.10;;;;;;4096132;28;20171;-57
2022/01/01 03:02:16;;;;;;;52.17;20.10;;;15.90;90.00;;;;;;4096196;28;20051;-56
2022/01/01 03:04:40;;;;;;;48.50;20.45;;;15.90;90.00;;;;;;4109648;28;20438;-56
2022/01/01 03:07:04;;;;;;;48.70;20.85;;;15.90;90.10;;;;;;4112210;28;20054;-57
2022/01/01 03:09:34;;;;;;;53.15;20.83;;;15.90;90.10;;;;;;4112117;28;20509;-59
2022/01/01 03:11:59;;;;;;;46.95;19.77;;;15.90;90.10;;;;;;4094896;28;20090;-57
2022/01/01 03:14:21;;;;;;;56.05;19.90;;;15.90;90.00;;;;;;4096326;28;20054;-58
2022/01/01 03:16:45;;;;;;;50.97;20.90;;;15.90;90.40;;;;;;4096039;28;20491;-57
2022/01/01 03:19:08;;;;;;;51.58;21.80;;;15.90;90.10;;;;;;4114094;28;20050;-56
2022/01/01 03:21:31;;;;;;;58.35;21.35;;;15.90;90.10;;;;;;4127630;28;20058;-57
2022/01/01 03:23:54;;;;;;;56.60;22.40;;;15.80;90.10;;;;;;4124077;28;20054;-57
2022/01/01 03:26:17;;;;;;;57.70;21.67;;;15.90;90.10;;;;;;4111521;28;20134;-57
2022/01/01 03:28:41;;;;;;;53.25;22.70;;;15.90;90.20;;;;;;4112014;28;20109;-54
2022/01/01 03:31:04;;;;;;;51.30;23.30;;;15.90;90.10;;;;;;4111187;28;20050;-57
2022/01/01 03:33:27;;;;;;;61.80;23.95;;;15.90;90.10;;;;;;4111576;28;20058;-58
2022/01/01 03:35:50;;;;;;;48.58;19.83;;;15.90;90.10;;;;;;4112166;28;20058;-59
2022/01/01 03:38:13;;;;;;;53.78;24.67;;;15.90;90.20;;;;;;4118057;28;20050;-58
2022/01/01 03:40:36;;;;;;;56.65;23.70;;;15.80;90.20;;;;;;4095587;28;20055;-54
2022/01/01 03:42:59;;;;;;;55.85;23.73;;;15.80;90.20;;;;;;4095597;28;20050;-58
2022/01/01 03:45:23;;;;;;;53.13;24.35;;;15.80;90.20;;;;;;4095818;28;20106;-56
2022/01/01 03:47:46;;;;;;;52.20;25.10;;;15.80;90.20;;;;;;4095028;28;20051;-58
2022/01/01 03:50:10;;;;;;;66.78;26.83;;;15.80;90.20;;;;;;4095356;28;20058;-57
2022/01/01 03:52:34;;;;;;;57.70;25.27;;;15.80;90.20;;;;;;4109643;28;20098;-58
2022/01/01 03:54:57;;;;;;;52.75;24.58;;;15.80;90.20;;;;;;4112047;28;20038;-58
2022/01/01 03:57:20;;;;;;;50.58;24.33;;;15.80;90.20;;;;;;4111359;28;20106;-57
2022/01/01 03:59:44;;;;;;;60.90;27.63;;;15.80;90.30;;;;;;4111195;28;20055;-58
2022/01/01 04:02:08;;;;;;;62.33;24.77;;;15.80;90.30;;;;;;4110946;28;20097;-58
2022/01/01 04:04:31;;;;;;;60.95;25.30;;;15.80;90.20;;;;;;4110891;28;20054;-58
2022/01/01 04:06:55;;;;;;;51.95;23.30;;;15.80;90.20;;;;;;4112058;28;20094;-58
2022/01/01 04:09:18;;;;;;;55.83;23.45;;;15.80;90.30;;;;;;4111211;28;20450;-58
2022/01/01 04:11:41;;;;;;;57.08;23.05;;;15.80;90.30;;;;;;4112001;28;20054;-57
2022/01/01 04:14:04;;;;;;;59.80;23.98;;;15.80;90.30;;;;;;4110803;28;20662;-57
2022/01/01 04:16:28;;;;;;;53.58;23.02;;;15.80;90.30;;;;;;4111226;28;20117;-58
2022/01/01 04:18:52;;;;;;;49.05;22.92;;;15.80;90.50;;;;;;4110931;28;20054;-58
2022/01/01 04:21:16;;;;;;;48.03;22.13;;;15.90;90.60;;;;;;4110823;28;20389;-57
2022/01/01 04:23:40;;;;;;;52.40;23.15;;;15.90;90.40;;;;;;4122541;28;20046;-57
2022/01/01 04:26:05;;;;;;;57.88;23.75;;;16.00;90.30;;;;;;4127029;28;20131;-57
2022/01/01 04:28:28;;;;;;;46.60;22.02;;;16.10;90.10;;;;;;4111332;28;20039;-58
2022/01/01 04:30:51;;;;;;;58.42;23.63;;;16.20;90.00;;;;;;4110448;28;20050;-56
2022/01/01 04:33:14;;;;;;;50.97;22.98;;;16.20;89.70;;;;;;4110523;28;20046;-55
2022/01/01 04:35:39;;;;;;;49.17;22.13;;;16.20;90.10;;;;;;4110892;28;20446;-58
2022/01/01 04:38:01;;;;;;;56.38;24.05;;;16.20;89.40;;;;;;4110811;28;20055;-57
2022/01/01 04:40:25;;;;;;;57.15;24.88;;;16.20;89.30;;;;;;4094769;28;20047;-58
2022/01/01 04:42:48;;;;;;;54.28;23.98;;;16.20;89.30;;;;;;4094972;28;20055;-58
2022/01/01 04:45:12;;;;;;;57.88;25.38;;;16.20;89.20;;;;;;4094655;28;20483;-57
2022/01/01 04:47:35;;;;;;;54.55;25.02;;;16.20;89.10;;;;;;4094766;28;20051;-58
2022/01/01 04:49:58;;;;;;;48.75;23.92;;;16.20;89.30;;;;;;4094688;28;20050;-57
2022/01/01 04:52:23;;;;;;;50.72;26.08;;;16.20;89.30;;;;;;4094928;28;20059;-57
2022/01/01 04:54:46;;;;;;;49.95;25.70;;;16.10;89.20;;;;;;4100611;28;20105;-56
2022/01/01 04:57:10;;;;;;;54.65;25.70;;;16.10;89.40;;;;;;4110432;28;20054;-59
2022/01/01 04:59:33;;;;;;;49.83;24.95;;;16.10;89.50;;;;;;4109618;28;20042;-58
2022/01/01 05:01:57;;;;;;;59.13;26.35;;;16.10;89.50;;;;;;4094286;28;20757;-57
2022/01/01 05:04:20;;;;;;;53.50;26.02;;;16.10;89.50;;;;;;4094343;28;20051;-57
2022/01/01 05:06:49;;;;;;;61.85;27.38;;;16.10;89.70;;;;;;4094127;28;20047;-57
2022/01/01 05:09:13;;;;;;;53.67;26.90;;;16.10;89.80;;;;;;4093643;28;20114;-57
2022/01/01 05:11:36;;;;;;;52.17;27.17;;;16.10;89.60;;;;;;4115582;28;20105;-58
2022/01/01 05:13:59;;;;;;;56.80;27.98;;;16.20;89.50;;;;;;4126238;28;20054;-57
2022/01/01 05:16:22;;;;;;;56.05;27.33;;;16.20;89.30;;;;;;4123920;28;20124;-60
2022/01/01 05:18:46;;;;;;;56.30;29.73;;;16.20;89.10;;;;;;4110490;28;20557;-57
2022/01/01 05:21:09;;;;;;;54.13;27.55;;;16.30;89.10;;;;;;4109907;28;20069;-60
2022/01/01 05:23:32;;;;;;;54.20;29.73;;;16.30;89.10;;;;;;4109958;28;20518;-58
2022/01/01 05:25:56;;;;;;;63.22;32.28;;;16.30;89.10;;;;;;4109916;28;20105;-58
2022/01/01 05:28:19;;;;;;;56.72;30.48;;;16.20;89.90;;;;;;4094272;28;20051;-57
2022/01/01 05:30:42;;;;;;;62.33;32.33;;;16.20;89.10;;;;;;4094434;28;20055;-57
2022/01/01 05:33:05;;;;;;;63.15;33.67;;;16.20;89.10;;;;;;4100662;28;20478;-57
2022/01/01 05:35:28;;;;;;;64.55;34.67;;;16.20;89.10;;;;;;4110378;28;20503;-57
2022/01/01 05:37:51;;;;;;;60.25;31.33;;;16.20;89.10;;;;;;4109913;28;20046;-56
2022/01/01 05:40:14;;;;;;;68.50;35.67;;;16.20;89.20;;;;;;4094209;28;20046;-56
2022/01/01 05:42:38;;;;;;;65.20;36.13;;;16.20;89.30;;;;;;4094069;28;20047;-58
2022/01/01 05:45:01;;;;;;;66.13;36.35;;;16.20;89.40;;;;;;4094359;28;20051;-58
2022/01/01 05:47:24;;;;;;;66.88;36.17;;;16.20;89.50;;;;;;4119148;28;20046;-58
2022/01/01 05:49:47;;;;;;;73.22;37.08;;;16.10;89.50;;;;;;4122796;28;20146;-56
2022/01/01 05:52:11;;;;;;;66.63;35.22;;;16.10;89.60;;;;;;4123236;28;20050;-58
2022/01/01 05:54:34;;;;;;;65.07;36.25;;;16.10;90.20;;;;;;4110098;28;20093;-57
2022/01/01 05:56:57;;;;;;;62.15;35.47;;;16.10;89.60;;;;;;4109844;28;20050;-57
2022/01/01 05:59:21;;;;;;;64.20;35.92;;;16.10;89.90;;;;;;4110153;28;20059;-58
2022/01/01 06:01:44;;;;;;;61.90;34.67;;;16.10;89.70;;;;;;4110187;28;20059;-57
2022/01/01 06:04:08;;;;;;;60.45;32.00;;;16.10;89.70;;;;;;4109977;28;20054;-58
2022/01/01 06:06:31;;;;;;;63.20;32.80;;;16.10;89.70;;;;;;4113382;28;20423;-58
2022/01/01 06:08:54;;;;;;;64.47;33.17;;;16.00;89.70;;;;;;4109794;28;20383;-58
2022/01/01 06:11:17;;;;;;;53.97;29.50;;;16.00;89.80;;;;;;4110719;28;20047;-56
2022/01/01 06:13:40;;;;;;;58.53;29.75;;;16.00;89.80;;;;;;4112889;28;20058;-57
2022/01/01 06:16:05;;;;;;;63.95;30.17;;;16.00;89.60;;;;;;4113607;28;20051;-58
2022/01/01 06:18:28;;;;;;;58.67;29.45;;;16.00;89.60;;;;;;4128603;28;20112;-56
2022/01/01 06:20:51;;;;;;;56.05;29.75;;;16.00;89.60;;;;;;4128912;28;20105;-54
2022/01/01 06:23:14;;;;;;;56.22;28.77;;;16.00;89.70;;;;;;4096882;28;20090;-58
2022/01/01 06:25:37;;;;;;;61.75;27.38;;;16.00;89.80;;;;;;4099550;28;20117;-58
2022/01/01 06:28:00;;;;;;;55.60;25.77;;;15.90;90.10;;;;;;4112297;28;20050;-56
2022/01/01 06:30:23;;;;;;;44.53;23.67;;;16.00;90.10;;;;;;4112503;28;20445;-58
2022/01/01 06:32:50;;;;;;;50.40;24.33;;;16.10;90.00;;;;;;4112389;28;20751;-58
2022/01/01 06:35:13;;;;;;;43.60;22.70;;;16.30;89.50;;;;;;4112910;28;20459;-57
2022/01/01 06:37:36;;;;;;;44.63;22.80;;;16.40;88.90;;;;;;4113426;28;20089;-57
2022/01/01 06:39:59;;;;;;;48.13;23.05;;;16.50;88.30;;;;;;4132006;28;20053;-58
2022/01/01 06:42:22;;;;;;;42.33;21.35;;;16.60;88.00;;;;;;4127092;28;20047;-57
2022/01/01 06:44:45;;;;;;;41.15;21.00;;;16.70;87.60;;;;;;4128238;28;20101;-57
2022/01/01 06:47:09;;;;;;;40.67;19.98;;;16.70;87.30;;;;;;4128461;28;20050;-54
2022/01/01 06:49:33;;;;;;;37.80;19.48;;;16.70;87.20;;;;;;4128717;28;20054;-58
2022/01/01 06:51:56;;;;;;;37.80;18.42;;;16.70;87.10;;;;;;4128482;28;20049;-56
2022/01/01 06:54:19;;;;;;;39.03;17.48;;;16.70;87.10;;;;;;4126869;28;20046;-56
2022/01/01 06:56:42;;;;;;;38.83;18.13;;;16.70;88.00;;;;;;4126767;28;20042;-58
2022/01/01 06:59:05;;;;;;;37.70;18.30;;;16.70;87.40;;;;;;4128452;28;20449;-58
2022/01/01 07:01:28;;;;;;;38.20;17.23;;;16.70;87.70;;;;;;4128355;28;20786;-59
2022/01/01 07:03:51;;;;;;;32.28;17.20;;;16.70;87.60;;;;;;4128429;28;20117;-57
2022/01/01 07:06:15;;;;;;;38.72;17.77;;;16.70;87.70;;;;;;4126887;28;20104;-58
2022/01/01 07:08:39;;;;;;;37.00;17.00;;;16.70;87.80;;;;;;4128449;28;20486;-58
2022/01/01 07:11:02;;;;;;;37.42;17.40;;;16.60;87.70;;;;;;4119064;28;20494;-57
2022/01/01 07:13:25;;;;;;;44.80;17.80;;;16.60;87.90;;;;;;4111747;28;20054;-59
2022/01/01 07:15:48;;;;;;;38.08;17.17;;;16.60;87.90;;;;;;4110230;28;20051;-59
2022/01/01 07:18:11;;;;;;;36.53;16.52;;;16.60;88.00;;;;;;4112179;28;20105;-57
2022/01/01 07:20:34;;;;;;;41.50;18.17;;;16.50;88.20;;;;;;4111874;28;20077;-59
2022/01/01 07:22:58;;;;;;;39.70;16.38;;;16.50;88.40;;;;;;4111281;28;20051;-58
2022/01/01 07:25:21;;;;;;;40.47;18.83;;;16.40;88.50;;;;;;4111420;28;20063;-59
2022/01/01 07:27:44;;;;;;;39.95;17.30;;;16.40;88.60;;;;;;4119573;28;20054;-59
2022/01/01 07:30:09;;;;;;;35.70;17.85;;;16.40;88.80;;;;;;4111789;28;20517;-58
2022/01/01 07:32:40;;;;;;;43.50;18.25;;;16.40;88.90;;;;;;4110840;28;20483;-59
2022/01/01 07:35:03;;;;;;;44.13;18.35;;;16.40;89.00;;;;;;4111758;28;20054;-57
2022/01/01 07:37:26;;;;;;;40.88;17.73;;;16.40;88.90;;;;;;4111552;28;20050;-57
2022/01/01 07:39:51;;;;;;;42.17;17.52;;;16.40;88.80;;;;;;4111513;28;20221;-60
2022/01/01 07:42:13;;;;;;;40.72;17.95;;;16.50;88.70;;;;;;4111374;28;20050;-60
2022/01/01 07:44:37;;;;;;;34.40;16.98;;;16.50;88.30;;;;;;4113335;28;20104;-60
2022/01/01 07:47:01;;;;;;;31.02;15.93;;;16.50;88.20;;;;;;4111197;28;20102;-59
2022/01/01 07:49:24;;;;;;;36.85;16.45;;;16.50;88.20;;;;;;4111267;28;20105;-59
2022/01/01 07:51:46;;;;;;;39.40;15.90;;;16.60;88.10;;;;;;4111077;28;20047;-59
2022/01/01 07:54:09;;;;;;;34.42;14.90;;;16.70;87.70;;;;;;4111348;28;20101;-60
2022/01/01 07:56:34;;;;;;;35.58;14.32;;;16.80;87.90;;;;;;4110861;28;20101;-59
2022/01/01 07:59:00;;;;;;;31.23;12.57;;;16.80;88.30;;;;;;4110846;28;20050;-59
2022/01/01 08:01:23;;;;;;;32.00;13.93;;;16.90;88.20;;;;;;4124632;28;20116;-59
2022/01/01 08:03:49;;;;;;;32.17;14.25;;;16.90;88.10;;;;;;4127255;28;20054;-59
2022/01/01 08:06:12;;;;;;;30.73;15.75;;;16.90;88.10;;;;;;4126936;28;20046;-59
2022/01/01 08:08:35;;;;;;;36.45;14.57;;;16.90;88.00;;;;;;4127205;28;20364;-59
2022/01/01 08:10:59;;;;;;;31.80;13.65;;;16.90;87.90;;;;;;4127155;28;20446;-59
2022/01/01 08:13:24;;;;;;;31.13;13.93;;;16.90;87.80;;;;;;4127172;28;20043;-59
2022/01/01 08:15:47;;;;;;;35.58;15.38;;;16.90;87.70;;;;;;4126835;28;20418;-59
2022/01/01 08:18:10;;;;;;;30.40;15.00;;;16.80;87.70;;;;;;4125377;28;20062;-58
2022/01/01 08:20:33;;;;;;;30.35;13.50;;;16.80;87.80;;;;;;4114298;28;20055;-57
2022/01/01 08:22:56;;;;;;;32.75;13.88;;;16.80;87.90;;;;;;4110986;28;20046;-60
2022/01/01 08:25:21;;;;;;;31.45;13.60;;;16.80;87.90;;;;;;4113878;28;20043;-60
2022/01/01 08:27:44;;;;;;;25.70;14.02;;;16.80;87.60;;;;;;4111072;28;20101;-60
2022/01/01 08:30:10;;;;;;;27.15;13.55;;;16.90;87.30;;;;;;4115607;28;20062;-60
2022/01/01 08:32:34;;;;;;;31.02;13.43;;;17.00;87.00;;;;;;4109502;28;20491;-60
2022/01/01 08:34:57;;;;;;;31.10;12.80;;;17.00;86.70;;;;;;4107084;28;20046;-60
2022/01/01 08:37:20;;;;;;;27.33;12.63;;;17.00;86.40;;;;;;4099363;28;20050;-59
2022/01/01 08:39:43;;;;;;;27.95;11.35;;;17.00;86.20;;;;;;4103098;28;20050;-60
2022/01/01 08:42:09;;;;;;;31.20;11.68;;;17.00;87.00;;;;;;4094936;28;20054;-60
2022/01/01 08:44:32;;;;;;;34.97;14.88;;;17.00;86.10;;;;;;4094996;28;20118;-60
2022/01/01 08:46:58;;;;;;;38.33;14.85;;;17.00;86.20;;;;;;4101328;28;20442;-60
2022/01/01 08:49:20;;;;;;;23.80;11.23;;;16.90;86.20;;;;;;4099252;28;20443;-60
2022/01/01 08:51:45;;;;;;;29.95;13.63;;;16.90;86.40;;;;;;4107164;28;20047;-60
2022/01/01 08:54:07;;;;;;;35.90;13.60;;;16.90;87.50;;;;;;4098117;28;20447;-59
2022/01/01 08:56:32;;;;;;;33.65;13.00;;;16.80;86.80;;;;;;4109577;28;20422;-60
2022/01/01 08:58:55;;;;;;;32.88;14.35;;;16.80;87.10;;;;;;4104408;28;20054;-60
2022/01/01 09:01:19;;;;;;;35.95;12.57;;;16.70;87.20;;;;;;4102802;28;20043;-60
2022/01/01 09:03:44;;;;;;;33.38;13.68;;;16.70;87.40;;;;;;4109865;28;20093;-60
2022/01/01 09:06:07;;;;;;;29.80;12.55;;;16.70;87.60;;;;;;4100544;28;20109;-59
2022/01/01 09:08:31;;;;;;;31.70;13.23;;;16.60;87.70;;;;;;4110175;28;20121;-59
2022/01/01 09:10:54;;;;;;;32.10;14.98;;;16.60;87.90;;;;;;4103303;28;20102;-59
2022/01/01 09:13:18;;;;;;;35.28;15.23;;;16.60;88.10;;;;;;4105397;28;20117;-59
2022/01/01 09:15:41;;;;;;;32.33;13.98;;;16.50;88.20;;;;;;4103286;28;20054;-59
2022/01/01 09:18:04;;;;;;;35.40;14.70;;;16.50;88.40;;;;;;4101667;28;20051;-60
2022/01/01 09:20:29;;;;;;;32.42;15.13;;;16.50;88.70;;;;;;4108057;28;20105;-59
2022/01/01 09:22:52;;;;;;;38.03;15.23;;;16.40;88.80;;;;;;4106054;28;20054;-60
2022/01/01 09:25:15;;;;;;;37.20;15.18;;;16.40;89.00;;;;;;4109364;28;20050;-59
2022/01/01 09:27:38;;;;;;;31.85;16.63;;;16.40;89.20;;;;;;4104054;28;20046;-59
2022/01/01 09:30:01;;;;;;;35.92;16.08;;;16.40;89.40;;;;;;4105816;28;20051;-60
2022/01/01 09:32:24;;;;;;;30.20;15.88;;;16.40;89.50;;;;;;4112298;28;20562;-60
2022/01/01 09:34:47;;;;;;;34.00;16.77;;;16.30;89.70;;;;;;4101876;28;20102;-59
2022/01/01 09:37:11;;;;;;;35.47;17.15;;;16.30;89.80;;;;;;4102374;28;20062;-60
2022/01/01 09:39:34;;;;;;;34.35;17.05;;;16.30;89.90;;;;;;4101369;28;20102;-59
2022/01/01 09:41:58;;;;;;;35.47;16.90;;;16.30;90.00;;;;;;4105657;28;20062;-59
2022/01/01 09:44:21;;;;;;;34.60;18.00;;;16.30;90.00;;;;;;4105043;28;20118;-59
2022/01/01 09:46:47;;;;;;;36.08;18.10;;;16.20;90.00;;;;;;4104754;28;20047;-59
2022/01/01 09:49:11;;;;;;;34.92;17.63;;;16.20;90.10;;;;;;4109216;28;20055;-60
2022/01/01 09:51:35;;;;;;;31.73;16.70;;;16.20;90.10;;;;;;4109758;28;20109;-60
2022/01/01 09:53:59;;;;;;;34.38;16.45;;;16.20;90.20;;;;;;4108892;28;20194;-59
2022/01/01 09:56:22;;;;;;;34.47;14.52;;;16.20;90.20;;;;;;4107023;28;20051;-60
2022/01/01 09:58:46;;;;;;;37.15;16.45;;;16.20;90.30;;;;;;4108937;28;20047;-60
2022/01/01 10:01:09;;;;;;;37.15;15.75;;;16.20;90.30;;;;;;4107457;28;20113;-59
2022/01/01 10:03:38;;;;;;;29.38;17.20;;;16.10;90.30;;;;;;4108428;28;20106;-60
2022/01/01 10:06:03;;;;;;;26.95;15.38;;;16.20;90.40;;;;;;4105665;28;20043;-59
2022/01/01 10:08:26;;;;;;;31.42;15.88;;;16.20;90.50;;;;;;4107461;28;20051;-60
2022/01/01 10:10:51;;;;;;;29.33;14.98;;;16.30;90.40;;;;;;4106648;28;20050;-60
2022/01/01 10:13:17;;;;;;;31.05;15.65;;;16.50;90.10;;;;;;4108708;28;20403;-59
2022/01/01 10:15:40;;;;;;;37.28;17.27;;;16.70;89.40;;;;;;4105122;28;20098;-60
2022/01/01 10:18:07;;;;;;;28.83;15.00;;;16.90;88.30;;;;;;4107369;28;20050;-60
2022/01/01 10:20:36;;;;;;;22.85;13.18;;;17.20;87.20;;;;;;4107066;28;20054;-58
2022/01/01 10:23:10;;;;;;;26.55;14.40;;;17.40;86.00;;;;;;4106677;28;20553;-60
2022/01/01 10:28:17;;;;;;;29.25;15.85;;;17.90;84.00;;;;;;4108427;28;20054;-59
2022/01/01 10:30:41;;;;;;;25.83;14.73;;;18.10;83.00;;;;;;4112263;28;20098;-59
2022/01/01 10:33:09;;;;;;;25.15;12.27;;;18.20;82.30;;;;;;4101489;28;20554;-59
2022/01/01 10:35:38;;;;;;;22.23;11.27;;;18.30;81.50;;;;;;4107172;28;20521;-60
2022/01/01 10:38:03;;;;;;;24.08;13.05;;;18.40;80.80;;;;;;4107155;28;20094;-59
2022/01/01 10:40:27;;;;;;;29.58;16.15;;;18.50;80.40;;;;;;4106860;28;20055;-59
2022/01/01 10:42:51;;;;;;;29.27;16.08;;;18.60;80.30;;;;;;4108324;28;20054;-58
2022/01/01 10:45:28;;;;;;;29.27;14.25;;;18.50;80.10;;;;;;4107867;28;20046;-60
2022/01/01 10:48:15;;;;;;;17.15;8.70;;;18.50;80.30;;;;;;4105301;28;20085;-59
2022/01/01 10:50:38;;;;;;;24.48;11.93;;;18.40;80.60;;;;;;4103293;28;20098;-60
2022/01/01 10:53:10;;;;;;;22.83;11.48;;;18.30;81.10;;;;;;4104166;28;21174;-60
2022/01/01 10:55:34;;;;;;;23.35;13.95;;;18.20;81.50;;;;;;4106867;28;20046;-59
2022/01/01 10:57:58;;;;;;;20.00;11.60;;;18.20;81.50;;;;;;4105464;28;20107;-59
2022/01/01 11:00:25;;;;;;;22.83;11.18;;;18.20;81.40;;;;;;4109373;28;20054;-60
2022/01/01 11:02:51;;;;;;;20.52;12.25;;;18.30;81.30;;;;;;4105768;28;20098;-60
2022/01/01 11:05:14;;;;;;;25.23;13.50;;;18.30;81.20;;;;;;4104351;28;20051;-59
2022/01/01 11:07:39;;;;;;;24.27;10.10;;;18.30;81.30;;;;;;4107698;28;20125;-60
2022/01/01 11:10:02;;;;;;;22.27;12.75;;;18.20;81.40;;;;;;4104318;28;20051;-60
2022/01/01 11:12:27;;;;;;;20.63;10.55;;;18.20;81.60;;;;;;4106002;28;20107;-60
2022/01/01 11:14:50;;;;;;;20.50;11.43;;;18.20;81.70;;;;;;4120864;28;20054;-59
2022/01/01 11:17:15;;;;;;;20.88;12.40;;;18.20;81.70;;;;;;4105748;28;20094;-60
2022/01/01 11:19:42;;;;;;;17.85;9.43;;;18.20;81.60;;;;;;4110906;28;20852;-59
2022/01/01 11:22:06;;;;;;;18.20;8.85;;;18.20;81.60;;;;;;4104120;28;20063;-61
2022/01/01 11:24:30;;;;;;;21.27;11.00;;;18.20;81.70;;;;;;4110041;28;20431;-61
2022/01/01 11:26:54;;;;;;;22.42;10.55;;;18.10;81.80;;;;;;4105511;28;20102;-58
2022/01/01 11:29:17;;;;;;;19.60;10.70;;;18.10;82.10;;;;;;4104712;28;20491;-61
2022/01/01 11:31:42;;;;;;;19.58;10.32;;;18.00;82.30;;;;;;4103469;28;20051;-61
2022/01/01 11:34:09;;;;;;;16.33;9.88;;;17.90;82.60;;;;;;4103369;28;20081;-61
2022/01/01 11:36:35;;;;;;;18.98;10.55;;;17.90;82.90;;;;;;4114464;28;20483;-61
2022/01/01 11:38:59;;;;;;;18.27;10.60;;;17.90;83.20;;;;;;4102958;28;20058;-60
2022/01/01 11:41:23;;;;;;;22.33;10.73;;;17.80;83.30;;;;;;4108097;28;20054;-61
2022/01/01 11:43:49;;;;;;;17.00;10.23;;;17.80;83.30;;;;;;4103340;28;20043;-60
2022/01/01 11:46:14;;;;;;;17.08;9.77;;;17.80;83.20;;;;;;4107341;28;20109;-61
2022/01/01 11:48:48;;;;;;;20.90;9.75;;;17.80;83.20;;;;;;4103254;28;20059;-60
2022/01/01 11:51:33;;;;;;;18.40;8.95;;;17.80;83.10;;;;;;4106045;28;20086;-60
2022/01/01 11:54:20;;;;;;;18.55;8.90;;;17.90;83.20;;;;;;4119825;28;20050;-60
2022/01/01 11:57:17;;;;;;;12.48;7.57;;;17.80;83.10;;;;;;4098036;28;20129;-61
2022/01/01 11:59:47;;;;;;;15.07;7.63;;;17.80;83.20;;;;;;4110160;28;20078;-60
2022/01/01 12:02:34;;;;;;;13.90;7.20;;;17.80;83.30;;;;;;4105004;28;20411;-61
2022/01/01 12:05:31;;;;;;;16.08;8.30;;;17.80;83.40;;;;;;4104794;28;20112;-61
2022/01/01 12:07:59;;;;;;;14.43;8.10;;;17.70;83.60;;;;;;4119324;28;20050;-61
2022/01/01 12:10:29;;;;;;;11.48;5.72;;;17.80;83.60;;;;;;4105063;28;20050;-61
2022/01/01 12:12:56;;;;;;;13.30;7.70;;;17.80;83.30;;;;;;4108768;28;20059;-61
2022/01/01 12:15:28;;;;;;;14.45;7.18;;;17.90;83.10;;;;;;4115897;28;20383;-62
2022/01/01 12:17:56;;;;;;;15.63;7.45;;;17.90;83.00;;;;;;4106882;28;20048;-62